TimeCDT,TemperatureF,Dew PointF,Humidity,Sea Level PressureIn,VisibilityMPH,Wind Direction,Wind SpeedMPH,Gust SpeedMPH,PrecipitationIn,Events,Conditions,WindDirDegrees,DateUTC
1:44 AM,33.8,24.8,70,29.86,10.0,WNW,8.1,-,N/A,,Overcast,290,2013-03-15 06:44:00
1:54 AM,32.0,25.0,75,29.90,10.0,WNW,6.9,-,N/A,,Overcast,290,2013-03-15 06:54:00
2:54 AM,30.9,25.0,79,29.90,10.0,West,3.5,-,N/A,,Mostly Cloudy,280,2013-03-15 07:54:00
3:54 AM,32.0,26.1,79,29.88,10.0,WNW,4.6,-,N/A,,Overcast,290,2013-03-15 08:54:00
4:54 AM,32.0,26.1,79,29.88,10.0,NW,6.9,-,N/A,,Overcast,310,2013-03-15 09:54:00
5:16 AM,33.8,26.6,75,29.84,10.0,NNW,6.9,-,N/A,,Overcast,330,2013-03-15 10:16:00
5:54 AM,32.0,27.0,82,29.90,10.0,North,11.5,-,N/A,,Overcast,360,2013-03-15 10:54:00
6:54 AM,30.9,26.1,82,29.93,10.0,North,11.5,-,N/A,,Overcast,360,2013-03-15 11:54:00
7:54 AM,30.0,24.1,79,29.95,10.0,North,13.8,-,N/A,,Overcast,360,2013-03-15 12:54:00
8:17 AM,28.4,21.2,74,29.91,10.0,North,11.5,-,N/A,,Overcast,350,2013-03-15 13:17:00
8:54 AM,28.0,21.0,75,29.96,10.0,NNW,6.9,-,N/A,,Overcast,340,2013-03-15 13:54:00
9:54 AM,28.0,19.0,69,29.97,-9999.0,North,11.5,-,N/A,,Overcast,360,2013-03-15 14:54:00
10:54 AM,28.9,17.1,61,29.96,10.0,North,-9999.0,-,N/A,,Mostly Cloudy,0,2013-03-15 15:54:00
11:02 AM,28.4,17.6,64,29.92,10.0,North,-9999.0,-,N/A,,Mostly Cloudy,0,2013-03-15 16:02:00
11:54 AM,28.9,15.1,56,29.96,10.0,NNW,8.1,18.4,N/A,,Partly Cloudy,330,2013-03-15 16:54:00
12:54 PM,30.0,15.1,54,29.96,10.0,NW,10.4,-,N/A,,Partly Cloudy,320,2013-03-15 17:54:00
1:54 PM,32.0,16.0,52,29.95,10.0,North,9.2,-,N/A,,Partly Cloudy,360,2013-03-15 18:54:00
2:54 PM,32.0,14.0,48,29.93,10.0,NNW,8.1,-,N/A,,Mostly Cloudy,340,2013-03-15 19:54:00
3:54 PM,30.0,12.9,49,29.93,10.0,North,8.1,-,N/A,,Scattered Clouds,360,2013-03-15 20:54:00
4:54 PM,28.9,10.9,47,29.93,10.0,NNE,8.1,-,N/A,,Overcast,20,2013-03-15 21:54:00
6:54 PM,25.0,9.0,51,29.96,10.0,NNE,11.5,-,N/A,,Overcast,20,2013-03-15 23:54:00
7:54 PM,21.9,9.0,58,29.96,10.0,NE,11.5,-,N/A,,Overcast,40,2013-03-16 00:54:00
8:54 PM,19.0,7.0,59,29.99,10.0,NE,9.2,-,N/A,,Overcast,40,2013-03-16 01:54:00
9:54 PM,17.1,6.1,62,30.00,4.0,ENE,8.1,-,0.00,Snow,Light Snow,70,2013-03-16 02:54:00
10:54 PM,16.0,10.0,77,30.01,2.5,North,4.6,-,0.00,Snow,Light Snow,10,2013-03-16 03:54:00
11:08 PM,15.8,10.4,79,29.94,3.0,NNE,4.6,-,0.00,Snow,Light Snow,30,2013-03-16 04:08:00
11:54 PM,15.1,10.0,80,29.99,3.0,NNE,5.8,-,0.00,Snow,Light Snow,30,2013-03-16 04:54:00